Time;durP1;ratioP1;P1;durP2;ratioP2;P2;SDS_P1;SDS_P2;PMS_P1;PMS_P2;Temp;Humidity;BMP_temperature;BMP_pressure;BME280_temperature;BME280_humidity;BME280_pressure;Samples;Min_cycle;Max_cycle;Signal;HPM_P1;HPM_P2
2023/08/12 00:01:37;;;;;;;1137.67;999.90;;;20.30;99.90;;;;;;5054876;28;20781;-64
2023/08/12 00:04:06;;;;;;;1146.27;999.90;;;20.30;99.90;;;;;;5055095;28;20502;-64
2023/08/12 00:06:33;;;;;;;1146.77;999.90;;;20.20;99.90;;;;;;5054730;28;20460;-64
2023/08/12 00:09:00;;;;;;;1157.80;999.90;;;20.20;99.90;;;;;;5054276;28;20448;-63
2023/08/12 00:11:27;;;;;;;1152.57;999.90;;;20.30;99.90;;;;;;5054947;28;20452;-63
2023/08/12 00:13:54;;;;;;;1168.87;999.90;;;20.10;99.90;;;;;;5054577;28;20543;-64
2023/08/12 00:16:21;;;;;;;1146.30;999.90;;;20.10;99.90;;;;;;5054828;28;20501;-63
2023/08/12 00:18:47;;;;;;;1131.47;999.90;;;20.10;99.90;;;;;;5053773;28;20524;-63
2023/08/12 00:21:16;;;;;;;1166.30;999.90;;;20.20;99.90;;;;;;5054406;28;20535;-64
2023/08/12 00:23:44;;;;;;;1155.80;999.90;;;20.10;99.90;;;;;;5054699;28;20452;-64
2023/08/12 00:26:11;;;;;;;1159.57;999.90;;;20.10;99.90;;;;;;5054851;28;20451;-64
2023/08/12 00:28:38;;;;;;;1158.70;999.90;;;20.10;99.90;;;;;;5048416;28;20422;-64
2023/08/12 00:31:05;;;;;;;1169.17;999.90;;;20.10;99.90;;;;;;5034359;28;20974;-64
2023/08/12 00:33:32;;;;;;;1183.77;999.90;;;20.10;99.90;;;;;;5034594;28;20472;-64
2023/08/12 00:35:59;;;;;;;1168.23;999.90;;;20.00;99.90;;;;;;5034273;28;20427;-63
2023/08/12 00:38:27;;;;;;;1178.03;999.90;;;19.90;99.90;;;;;;5038953;28;20469;-64
2023/08/12 00:40:54;;;;;;;1176.10;999.90;;;20.00;99.90;;;;;;5054094;28;20452;-64
2023/08/12 00:43:21;;;;;;;1171.80;999.90;;;20.00;99.90;;;;;;5054011;28;20957;-64
2023/08/12 00:45:48;;;;;;;1171.33;999.90;;;20.00;99.90;;;;;;5053979;28;20454;-64
2023/08/12 00:48:16;;;;;;;1165.97;999.90;;;19.90;99.90;;;;;;5053647;28;20540;-64
2023/08/12 00:50:44;;;;;;;1162.40;999.90;;;20.00;99.90;;;;;;5054190;28;20479;-64
2023/08/12 00:53:12;;;;;;;1159.67;999.90;;;19.90;99.90;;;;;;5053860;28;20480;-64
2023/08/12 00:55:40;;;;;;;1154.53;999.90;;;20.00;99.90;;;;;;5054207;28;20549;-64
2023/08/12 00:58:07;;;;;;;1148.27;999.90;;;20.00;99.90;;;;;;5053063;28;20459;-64
2023/08/12 01:00:34;;;;;;;1138.63;999.90;;;19.90;99.90;;;;;;5053903;28;20873;-64
2023/08/12 01:03:02;;;;;;;1146.93;999.90;;;19.90;99.90;;;;;;5054022;28;20471;-64
2023/08/12 01:05:31;;;;;;;1167.07;999.90;;;20.00;99.90;;;;;;5053652;28;20476;-64
2023/08/12 01:07:58;;;;;;;1164.17;999.90;;;19.90;99.90;;;;;;5053505;28;20451;-64
2023/08/12 01:10:29;;;;;;;1164.20;999.90;;;19.80;99.90;;;;;;5053749;28;20521;-64
2023/08/12 01:13:08;;;;;;;1170.47;999.90;;;19.90;99.90;;;;;;5053899;28;20475;-64
2023/08/12 01:15:35;;;;;;;1162.20;999.90;;;20.00;99.90;;;;;;5054060;28;20497;-64
2023/08/12 01:18:04;;;;;;;1174.07;999.90;;;20.00;99.90;;;;;;5053520;28;20819;-64
2023/08/12 01:20:32;;;;;;;1161.63;999.90;;;20.00;99.90;;;;;;5053589;28;20547;-64
2023/08/12 01:23:08;;;;;;;1176.30;999.90;;;19.90;99.90;;;;;;5053732;28;20447;-64
2023/08/12 01:25:35;;;;;;;1171.30;999.90;;;19.80;99.90;;;;;;5053727;28;20428;-64
2023/08/12 01:28:02;;;;;;;1168.47;999.90;;;19.90;99.90;;;;;;5053501;28;20856;-64
2023/08/12 01:30:29;;;;;;;1161.90;999.90;;;19.80;99.90;;;;;;5053579;28;20451;-64
2023/08/12 01:33:04;;;;;;;1163.07;999.90;;;19.90;99.90;;;;;;5053302;28;20459;-64
2023/08/12 01:35:36;;;;;;;1173.83;999.90;;;19.90;99.90;;;;;;5053432;28;20436;-64
2023/08/12 01:38:06;;;;;;;1169.10;999.90;;;19.90;99.90;;;;;;5053084;28;20479;-64
2023/08/12 01:40:36;;;;;;;1163.50;999.90;;;19.80;99.90;;;;;;5053148;28;20550;-64
2023/08/12 01:43:04;;;;;;;1172.07;999.90;;;19.80;99.90;;;;;;5053507;28;20880;-64
2023/08/12 01:45:31;;;;;;;1175.13;999.90;;;19.80;99.90;;;;;;5053484;28;20547;-65
2023/08/12 01:47:58;;;;;;;1165.83;999.90;;;19.90;99.90;;;;;;5053416;28;20455;-64
2023/08/12 01:50:25;;;;;;;1164.63;999.90;;;19.80;99.90;;;;;;5053281;28;20539;-64
2023/08/12 01:52:52;;;;;;;1175.53;999.90;;;19.90;99.90;;;;;;5053446;28;20907;-65
2023/08/12 01:55:19;;;;;;;1174.17;999.90;;;19.90;99.90;;;;;;5053400;28;20565;-64
2023/08/12 01:57:47;;;;;;;1176.93;999.90;;;20.00;99.90;;;;;;5053163;28;21005;-65
2023/08/12 02:00:16;;;;;;;1169.90;999.90;;;19.90;99.90;;;;;;5052404;28;20495;-65
2023/08/12 02:02:45;;;;;;;1169.60;999.90;;;20.00;99.90;;;;;;5053034;28;20534;-65
2023/08/12 02:05:12;;;;;;;1169.60;999.90;;;19.90;99.90;;;;;;5053318;28;20806;-65
2023/08/12 02:07:39;;;;;;;1172.93;999.90;;;19.90;99.90;;;;;;5053310;28;20447;-65
2023/08/12 02:10:07;;;;;;;1174.83;999.90;;;19.80;99.90;;;;;;5052696;28;21037;-65
2023/08/12 02:12:34;;;;;;;1167.80;999.90;;;20.00;99.90;;;;;;5052968;28;20447;-65
2023/08/12 02:15:02;;;;;;;1177.40;999.90;;;19.90;99.90;;;;;;5052986;28;20491;-65
2023/08/12 02:17:29;;;;;;;1179.73;999.90;;;19.80;99.90;;;;;;5053203;28;20860;-65
2023/08/12 02:19:56;;;;;;;1162.23;999.90;;;19.80;99.90;;;;;;5056305;28;20475;-65
2023/08/12 02:22:24;;;;;;;1180.27;999.90;;;19.80;99.90;;;;;;5057015;28;20534;-65
2023/08/12 02:24:51;;;;;;;1164.07;999.90;;;19.90;99.90;;;;;;5056975;28;20451;-64
2023/08/12 02:27:18;;;;;;;1175.63;999.90;;;19.90;99.90;;;;;;5056979;28;20841;-64
2023/08/12 02:29:45;;;;;;;1202.33;999.90;;;19.80;99.90;;;;;;5056303;28;20812;-64
2023/08/12 02:32:14;;;;;;;1202.47;999.90;;;19.80;99.90;;;;;;5056527;28;20487;-64
2023/08/12 02:34:41;;;;;;;1192.57;999.90;;;19.80;99.90;;;;;;5056758;28;20454;-64
2023/08/12 02:37:07;;;;;;;1180.87;999.90;;;19.80;99.90;;;;;;5057226;28;20534;-64
2023/08/12 02:39:34;;;;;;;1185.77;999.90;;;19.80;99.90;;;;;;5056295;28;20902;-64
2023/08/12 02:42:01;;;;;;;1187.73;999.90;;;19.90;99.90;;;;;;5056351;28;20456;-64
2023/08/12 02:44:29;;;;;;;1192.03;999.90;;;19.90;99.90;;;;;;5056622;28;20447;-65
2023/08/12 02:46:56;;;;;;;1200.10;999.90;;;19.90;99.90;;;;;;5056434;28;20947;-64
2023/08/12 02:49:24;;;;;;;1186.87;999.90;;;19.90;99.90;;;;;;5056178;28;20444;-64
2023/08/12 02:51:51;;;;;;;1187.17;999.90;;;19.90;99.90;;;;;;5056478;28;20810;-64
2023/08/12 02:54:18;;;;;;;1194.20;999.90;;;19.90;99.90;;;;;;5056366;28;20443;-65
2023/08/12 02:56:45;;;;;;;1181.60;999.90;;;19.80;99.90;;;;;;5056410;28;20875;-64
2023/08/12 02:59:12;;;;;;;1190.93;999.90;;;19.90;99.90;;;;;;5055966;28;20808;-65
2023/08/12 03:01:41;;;;;;;1188.60;999.90;;;19.80;99.90;;;;;;5056266;28;20498;-65
2023/08/12 03:04:08;;;;;;;1190.43;999.90;;;19.90;99.90;;;;;;5055949;28;20484;-65
2023/08/12 03:06:36;;;;;;;1185.90;999.90;;;19.80;99.90;;;;;;5056184;28;20509;-65
2023/08/12 03:09:03;;;;;;;1182.80;999.90;;;19.90;99.90;;;;;;5055565;28;20494;-65
2023/08/12 03:11:30;;;;;;;1181.97;999.90;;;19.90;99.90;;;;;;5056101;28;20490;-65
2023/08/12 03:13:57;;;;;;;1171.33;999.90;;;19.90;99.90;;;;;;5056029;28;20875;-65
2023/08/12 03:16:24;;;;;;;1162.00;999.90;;;19.90;99.90;;;;;;5055691;28;20539;-65
2023/08/12 03:18:51;;;;;;;1161.00;999.90;;;19.90;99.90;;;;;;5054834;28;21006;-65
2023/08/12 03:21:18;;;;;;;1158.90;999.90;;;19.90;99.90;;;;;;5055806;28;21014;-65
2023/08/12 03:23:46;;;;;;;1182.63;999.90;;;19.90;99.90;;;;;;5055515;28;20513;-65
2023/08/12 03:26:14;;;;;;;1187.00;999.90;;;19.90;99.90;;;;;;5055774;28;20530;-65
2023/08/12 03:28:41;;;;;;;1178.77;999.90;;;19.90;99.90;;;;;;5054817;28;20475;-64
2023/08/12 03:31:08;;;;;;;1187.27;999.90;;;19.90;99.90;;;;;;5055406;28;20482;-65
2023/08/12 03:33:35;;;;;;;1185.73;999.90;;;19.90;99.90;;;;;;5055665;28;20540;-65
2023/08/12 03:36:02;;;;;;;1197.23;999.90;;;19.90;99.90;;;;;;5055083;28;20478;-65
2023/08/12 03:38:29;;;;;;;1188.80;999.90;;;19.90;99.90;;;;;;5054983;28;20451;-65
2023/08/12 03:40:57;;;;;;;1195.03;999.90;;;19.90;99.90;;;;;;5055467;28;20507;-65
2023/08/12 03:43:24;;;;;;;1196.37;999.90;;;19.90;99.90;;;;;;5055791;28;20514;-65
2023/08/12 03:45:51;;;;;;;1192.37;999.90;;;19.80;99.90;;;;;;5055430;28;20578;-65
2023/08/12 03:48:18;;;;;;;1193.87;999.90;;;19.80;99.90;;;;;;5054482;28;20479;-65
2023/08/12 03:50:46;;;;;;;1202.13;999.90;;;19.80;99.90;;;;;;5055034;28;20526;-65
2023/08/12 03:53:14;;;;;;;1209.80;999.90;;;19.70;99.90;;;;;;5055316;28;20448;-65
2023/08/12 03:55:40;;;;;;;1206.60;999.90;;;19.70;99.90;;;;;;5055221;28;20486;-65
2023/08/12 03:58:09;;;;;;;1202.40;999.90;;;19.60;99.90;;;;;;5054888;28;20538;-65
2023/08/12 04:00:36;;;;;;;1194.20;999.90;;;19.60;99.90;;;;;;5054705;28;20471;-65
2023/08/12 04:03:03;;;;;;;1205.37;999.90;;;19.60;99.90;;;;;;5054825;28;20452;-65
2023/08/12 04:05:30;;;;;;;1203.17;999.90;;;19.60;99.90;;;;;;5054780;28;20452;-65
2023/08/12 04:07:57;;;;;;;1206.07;999.90;;;19.50;99.90;;;;;;5054689;28;20448;-65
2023/08/12 04:10:24;;;;;;;1208.77;999.90;;;19.50;99.90;;;;;;5054755;28;20498;-65
2023/08/12 04:12:51;;;;;;;1202.93;999.90;;;19.50;99.90;;;;;;5054660;28;20490;-65
2023/08/12 04:15:20;;;;;;;1200.50;999.90;;;19.50;99.90;;;;;;5055407;28;20534;-65
2023/08/12 04:17:47;;;;;;;1202.00;999.90;;;19.60;99.90;;;;;;5054840;28;20448;-65
2023/08/12 04:20:14;;;;;;;1188.97;999.90;;;19.60;99.90;;;;;;5053826;28;20566;-65
2023/08/12 04:22:41;;;;;;;1200.10;999.90;;;19.70;99.90;;;;;;5054434;28;20935;-65
2023/08/12 04:25:08;;;;;;;1192.97;999.90;;;19.60;99.90;;;;;;5054705;28;20573;-66
2023/08/12 04:27:35;;;;;;;1202.33;999.90;;;19.60;99.90;;;;;;5054342;28;21034;-66
2023/08/12 04:30:03;;;;;;;1182.57;999.90;;;19.70;99.90;;;;;;5054114;28;20536;-66
2023/08/12 04:32:31;;;;;;;1195.20;999.90;;;19.70;99.90;;;;;;5054288;28;20961;-68
2023/08/12 04:34:58;;;;;;;1196.70;999.90;;;19.80;99.90;;;;;;5054422;28;20535;-67
2023/08/12 04:37:25;;;;;;;1188.23;999.90;;;19.80;99.90;;;;;;5054215;28;20462;-67
2023/08/12 04:39:53;;;;;;;1180.33;999.90;;;19.90;99.90;;;;;;5053716;28;20475;-67
2023/08/12 04:42:19;;;;;;;1190.77;999.90;;;19.80;99.90;;;;;;5053418;28;20456;-68
2023/08/12 04:44:46;;;;;;;1172.87;999.90;;;19.80;99.90;;;;;;5054285;28;20547;-67
2023/08/12 04:47:13;;;;;;;1165.80;999.90;;;19.90;99.90;;;;;;5054249;28;20546;-68
2023/08/12 04:49:41;;;;;;;1168.47;999.90;;;19.90;99.90;;;;;;5063304;28;20481;-68
2023/08/12 04:52:08;;;;;;;1155.03;999.90;;;19.90;99.90;;;;;;5074088;28;20497;-68
2023/08/12 04:54:35;;;;;;;1171.80;999.90;;;19.90;99.90;;;;;;5073777;28;20451;-68
2023/08/12 04:57:02;;;;;;;1152.00;999.90;;;19.90;99.90;;;;;;5073787;28;20990;-68
2023/08/12 04:59:29;;;;;;;1143.90;999.90;;;20.00;99.90;;;;;;5073306;28;20640;-68
2023/08/12 05:01:56;;;;;;;1134.97;999.90;;;20.10;99.90;;;;;;5073973;28;20577;-68
2023/08/12 05:04:23;;;;;;;1135.03;999.90;;;20.10;99.90;;;;;;5073998;28;20508;-67
2023/08/12 05:06:51;;;;;;;1118.80;999.90;;;20.00;99.90;;;;;;5073602;28;20450;-68
2023/08/12 05:09:18;;;;;;;1124.43;999.90;;;20.10;99.90;;;;;;5073553;28;20446;-68
2023/08/12 05:11:45;;;;;;;1096.13;984.13;;;20.10;99.90;;;;;;5073872;28;20443;-68
2023/08/12 05:14:12;;;;;;;1081.57;973.20;;;20.10;99.90;;;;;;5073813;28;20453;-68
2023/08/12 05:16:39;;;;;;;1047.87;940.73;;;20.00;99.90;;;;;;5073783;28;20500;-68
2023/08/12 05:19:06;;;;;;;1021.17;914.87;;;20.00;99.90;;;;;;5073056;28;20454;-69
2023/08/12 05:21:33;;;;;;;1034.43;927.40;;;20.00;99.90;;;;;;5073380;28;20541;-69
2023/08/12 05:24:01;;;;;;;1021.47;916.20;;;20.00;99.90;;;;;;5073460;28;20493;-69
2023/08/12 05:26:28;;;;;;;1012.07;907.30;;;20.10;99.90;;;;;;5073703;28;20866;-69
2023/08/12 05:28:55;;;;;;;995.73;892.83;;;20.10;99.90;;;;;;5073118;28;20958;-69
2023/08/12 05:31:22;;;;;;;978.57;876.57;;;20.10;99.90;;;;;;5073697;28;20442;-70
2023/08/12 05:33:49;;;;;;;980.03;878.37;;;20.10;99.90;;;;;;5073748;28;20446;-69
2023/08/12 05:36:16;;;;;;;975.97;875.53;;;20.10;99.90;;;;;;5073648;28;20537;-70
2023/08/12 05:38:43;;;;;;;1098.73;996.03;;;20.00;99.90;;;;;;5073079;28;20482;-67
2023/08/12 05:41:11;;;;;;;976.10;878.10;;;20.00;99.90;;;;;;5073178;28;20481;-66
2023/08/12 05:43:38;;;;;;;1022.40;920.60;;;20.00;99.90;;;;;;5073584;28;20479;-66
2023/08/12 05:46:06;;;;;;;1178.00;999.90;;;19.90;99.90;;;;;;5073568;28;20879;-67
2023/08/12 05:48:32;;;;;;;1142.87;999.90;;;19.80;99.90;;;;;;5073112;28;20451;-66
2023/08/12 05:50:59;;;;;;;1220.67;999.90;;;19.80;99.90;;;;;;5073470;28;20489;-66
2023/08/12 05:53:26;;;;;;;1212.13;999.90;;;19.80;99.90;;;;;;5076695;28;20493;-66
2023/08/12 05:55:53;;;;;;;1210.73;999.90;;;19.80;99.90;;;;;;5077489;28;20533;-66
2023/08/12 05:58:22;;;;;;;1212.50;999.90;;;19.80;99.90;;;;;;5075978;28;20454;-66
2023/08/12 06:00:49;;;;;;;1211.13;999.90;;;19.80;99.90;;;;;;5077343;28;20478;-66
2023/08/12 06:03:16;;;;;;;1160.77;999.90;;;19.80;99.90;;;;;;5077325;28;20501;-65
2023/08/12 06:05:46;;;;;;;1213.97;999.90;;;19.80;99.90;;;;;;5077002;28;20953;-66
2023/08/12 06:08:13;;;;;;;1222.30;999.90;;;19.70;99.90;;;;;;5076927;28;20548;-65
2023/08/12 06:10:41;;;;;;;1214.77;999.90;;;19.70;99.90;;;;;;5077193;28;20486;-65
2023/08/12 06:13:08;;;;;;;1197.27;999.90;;;19.70;99.90;;;;;;5076867;28;20537;-65
2023/08/12 06:15:36;;;;;;;1201.23;999.90;;;19.70;99.90;;;;;;5077164;28;20859;-65
2023/08/12 06:18:04;;;;;;;1202.17;999.90;;;19.70;99.90;;;;;;5076461;28;20451;-65
2023/08/12 06:20:30;;;;;;;1172.93;999.90;;;19.70;99.90;;;;;;5076898;28;20462;-65
2023/08/12 06:22:57;;;;;;;1172.47;999.90;;;19.60;99.90;;;;;;5077033;28;20452;-66
2023/08/12 06:25:24;;;;;;;1097.73;980.13;;;19.70;99.90;;;;;;5077453;28;20533;-66
2023/08/12 06:27:51;;;;;;;1073.17;957.93;;;19.60;99.90;;;;;;5076481;28;20517;-65
2023/08/12 06:30:18;;;;;;;1067.53;951.03;;;19.60;99.90;;;;;;5076613;28;20882;-65
2023/08/12 06:32:46;;;;;;;1025.90;897.03;;;19.60;99.90;;;;;;5076473;28;20447;-66
2023/08/12 06:35:13;;;;;;;1036.47;924.13;;;19.60;99.90;;;;;;5076754;28;20446;-66
2023/08/12 06:37:41;;;;;;;1049.83;940.53;;;19.60;99.90;;;;;;5076676;28;20537;-65
2023/08/12 06:40:09;;;;;;;1083.87;973.03;;;19.60;99.90;;;;;;5075862;28;20486;-66
2023/08/12 06:42:36;;;;;;;1120.43;999.90;;;19.70;99.90;;;;;;5076608;28;20488;-67
2023/08/12 06:45:03;;;;;;;1067.93;959.20;;;19.80;99.90;;;;;;5076260;28;20453;-66
2023/08/12 06:47:30;;;;;;;1054.20;947.07;;;19.90;99.90;;;;;;5076235;28;20461;-66
2023/08/12 06:49:59;;;;;;;1043.50;938.80;;;20.10;99.90;;;;;;5076214;28;20534;-66
2023/08/12 06:52:26;;;;;;;1047.50;943.70;;;20.40;99.90;;;;;;5076146;28;20942;-66
2023/08/12 06:54:53;;;;;;;1045.93;941.60;;;20.60;99.90;;;;;;5076408;28;20450;-66
2023/08/12 06:57:20;;;;;;;1072.77;967.17;;;20.70;99.90;;;;;;5076026;28;20934;-66
2023/08/12 06:59:46;;;;;;;1059.40;954.70;;;20.70;99.90;;;;;;5075693;28;20557;-66
